MMZH/ZIH METAR and TAF weather

Enter ICAO airport designator
Station Type Date Time Source
MMZH METAR 2021/04/14 19:46 UTC NOAA

MMZH 141946Z E22007KT 7SM BKN250 30/22 A2991 RMK 8/008 HZY


Station Type Date Time Source
MMZH Decoded METAR 2021/04/14 19:46 UTC NOAA

Ixtapa-Zihuatanejo, Mexico (MMZH) 17-36N 101-28W
Apr 14, 2021 - 03:46 PM EDT / 2021.04.14 1946 UTC
Visibility: 7 mile(s):0
Sky conditions: mostly cloudy
Temperature: 86 F (30 C)
Heat index: 91.8 F (33.2 C):1
Dew Point: 71 F (22 C)
Relative Humidity: 62%
Pressure (altimeter): 29.91 in. Hg (1012 hPa)
ob: MMZH 141946Z E22007KT 7SM BKN250 30/22 A2991 RMK 8/008 HZY
cycle: 20

Station Type Date Time Source
MMZH TAF 2021/04/14 18:31 UTC NOAA

TAF MMZH 141627Z 1418/1518 24010KT P6SM SCT250
FM150600 00000KT P6SM SCT250

Example: see airport list